sensor_id;sensor_type;location;lat;lon;timestamp;P1;durP1;ratioP1;P2;durP2;ratioP2
14139;SDS011;7150;53.514;9.988;2022-09-09T00:02:01;11.40;;;7.83;;
14139;SDS011;7150;53.514;9.988;2022-09-09T00:04:43;12.10;;;8.63;;
14139;SDS011;7150;53.514;9.988;2022-09-09T00:07:37;11.20;;;8.10;;
14139;SDS011;7150;53.514;9.988;2022-09-09T00:10:22;10.27;;;7.80;;
14139;SDS011;7150;53.514;9.988;2022-09-09T00:12:57;13.47;;;9.07;;
14139;SDS011;7150;53.514;9.988;2022-09-09T00:15:53;10.83;;;8.33;;
14139;SDS011;7150;53.514;9.988;2022-09-09T00:21:30;14.67;;;9.90;;
14139;SDS011;7150;53.514;9.988;2022-09-09T00:23:59;10.57;;;7.93;;
14139;SDS011;7150;53.514;9.988;2022-09-09T00:26:37;13.27;;;9.43;;
14139;SDS011;7150;53.514;9.988;2022-09-09T00:31:33;11.73;;;8.20;;
14139;SDS011;7150;53.514;9.988;2022-09-09T00:34:02;10.53;;;8.10;;
14139;SDS011;7150;53.514;9.988;2022-09-09T00:36:41;9.67;;;7.20;;
14139;SDS011;7150;53.514;9.988;2022-09-09T00:39:09;9.13;;;7.00;;
14139;SDS011;7150;53.514;9.988;2022-09-09T00:52:44;10.13;;;7.90;;
14139;SDS011;7150;53.514;9.988;2022-09-09T00:55:39;12.47;;;8.03;;
14139;SDS011;7150;53.514;9.988;2022-09-09T00:58:13;11.03;;;7.77;;
14139;SDS011;7150;53.514;9.988;2022-09-09T01:00:46;9.90;;;7.40;;
14139;SDS011;7150;53.514;9.988;2022-09-09T01:03:22;10.97;;;8.07;;
14139;SDS011;7150;53.514;9.988;2022-09-09T01:06:04;9.87;;;7.13;;
14139;SDS011;7150;53.514;9.988;2022-09-09T01:11:36;9.87;;;6.57;;
14139;SDS011;7150;53.514;9.988;2022-09-09T01:17:03;10.77;;;7.47;;
14139;SDS011;7150;53.514;9.988;2022-09-09T01:22:38;12.43;;;8.47;;
14139;SDS011;7150;53.514;9.988;2022-09-09T01:27:50;10.73;;;7.23;;
14139;SDS011;7150;53.514;9.988;2022-09-09T01:30:18;9.27;;;6.70;;
14139;SDS011;7150;53.514;9.988;2022-09-09T01:32:46;10.23;;;7.87;;
14139;SDS011;7150;53.514;9.988;2022-09-09T01:38:07;8.87;;;6.73;;
14139;SDS011;7150;53.514;9.988;2022-09-09T01:40:33;11.47;;;7.30;;
14139;SDS011;7150;53.514;9.988;2022-09-09T01:42:59;11.13;;;8.03;;
14139;SDS011;7150;53.514;9.988;2022-09-09T01:45:24;9.57;;;6.93;;
14139;SDS011;7150;53.514;9.988;2022-09-09T01:47:51;9.63;;;7.23;;
14139;SDS011;7150;53.514;9.988;2022-09-09T01:50:18;9.90;;;6.77;;
14139;SDS011;7150;53.514;9.988;2022-09-09T01:52:45;11.23;;;8.00;;
14139;SDS011;7150;53.514;9.988;2022-09-09T01:55:13;10.17;;;6.87;;
14139;SDS011;7150;53.514;9.988;2022-09-09T01:57:50;10.80;;;7.30;;
14139;SDS011;7150;53.514;9.988;2022-09-09T02:00:39;11.43;;;8.03;;
14139;SDS011;7150;53.514;9.988;2022-09-09T02:03:17;11.33;;;7.73;;
14139;SDS011;7150;53.514;9.988;2022-09-09T02:05:57;10.03;;;7.37;;
14139;SDS011;7150;53.514;9.988;2022-09-09T02:08:52;10.87;;;7.67;;
14139;SDS011;7150;53.514;9.988;2022-09-09T02:11:21;11.37;;;8.00;;
14139;SDS011;7150;53.514;9.988;2022-09-09T02:13:51;10.60;;;7.13;;
14139;SDS011;7150;53.514;9.988;2022-09-09T02:16:31;9.87;;;6.93;;
14139;SDS011;7150;53.514;9.988;2022-09-09T02:19:12;12.17;;;8.03;;
14139;SDS011;7150;53.514;9.988;2022-09-09T02:21:42;11.00;;;6.87;;
14139;SDS011;7150;53.514;9.988;2022-09-09T02:24:09;9.73;;;7.00;;
14139;SDS011;7150;53.514;9.988;2022-09-09T02:26:39;11.03;;;7.20;;
14139;SDS011;7150;53.514;9.988;2022-09-09T02:29:17;10.53;;;7.20;;
14139;SDS011;7150;53.514;9.988;2022-09-09T02:31:52;10.00;;;7.70;;
14139;SDS011;7150;53.514;9.988;2022-09-09T02:34:23;9.80;;;6.63;;
14139;SDS011;7150;53.514;9.988;2022-09-09T02:36:49;10.07;;;7.47;;
14139;SDS011;7150;53.514;9.988;2022-09-09T02:39:18;8.93;;;6.60;;
14139;SDS011;7150;53.514;9.988;2022-09-09T02:41:44;7.70;;;6.10;;
14139;SDS011;7150;53.514;9.988;2022-09-09T02:44:12;9.10;;;6.53;;
14139;SDS011;7150;53.514;9.988;2022-09-09T02:52:20;10.30;;;6.80;;
14139;SDS011;7150;53.514;9.988;2022-09-09T02:54:59;7.43;;;5.60;;
14139;SDS011;7150;53.514;9.988;2022-09-09T02:57:30;9.67;;;6.90;;
14139;SDS011;7150;53.514;9.988;2022-09-09T02:59:58;8.43;;;6.10;;
14139;SDS011;7150;53.514;9.988;2022-09-09T03:02:25;8.40;;;6.40;;
14139;SDS011;7150;53.514;9.988;2022-09-09T03:04:50;7.53;;;6.10;;
14139;SDS011;7150;53.514;9.988;2022-09-09T03:07:17;9.87;;;7.03;;
14139;SDS011;7150;53.514;9.988;2022-09-09T03:09:43;8.20;;;6.40;;
14139;SDS011;7150;53.514;9.988;2022-09-09T03:12:09;7.40;;;5.83;;
14139;SDS011;7150;53.514;9.988;2022-09-09T03:14:36;8.07;;;6.23;;
14139;SDS011;7150;53.514;9.988;2022-09-09T03:17:03;8.67;;;6.77;;
14139;SDS011;7150;53.514;9.988;2022-09-09T03:19:29;7.57;;;5.80;;
14139;SDS011;7150;53.514;9.988;2022-09-09T03:21:55;8.57;;;5.80;;
14139;SDS011;7150;53.514;9.988;2022-09-09T03:24:21;7.77;;;6.30;;
14139;SDS011;7150;53.514;9.988;2022-09-09T03:26:47;7.73;;;5.23;;
14139;SDS011;7150;53.514;9.988;2022-09-09T03:29:14;8.93;;;5.87;;
14139;SDS011;7150;53.514;9.988;2022-09-09T03:31:40;9.13;;;5.87;;
14139;SDS011;7150;53.514;9.988;2022-09-09T03:34:06;7.87;;;5.57;;
14139;SDS011;7150;53.514;9.988;2022-09-09T03:36:32;7.83;;;6.13;;
14139;SDS011;7150;53.514;9.988;2022-09-09T03:38:57;9.07;;;6.60;;
14139;SDS011;7150;53.514;9.988;2022-09-09T03:41:26;8.43;;;6.03;;
14139;SDS011;7150;53.514;9.988;2022-09-09T03:43:52;7.13;;;5.80;;
14139;SDS011;7150;53.514;9.988;2022-09-09T03:46:18;8.40;;;5.93;;
14139;SDS011;7150;53.514;9.988;2022-09-09T03:48:45;6.70;;;5.53;;
14139;SDS011;7150;53.514;9.988;2022-09-09T03:51:11;8.27;;;5.90;;
14139;SDS011;7150;53.514;9.988;2022-09-09T03:53:37;6.60;;;5.20;;
14139;SDS011;7150;53.514;9.988;2022-09-09T03:56:03;7.93;;;5.73;;
14139;SDS011;7150;53.514;9.988;2022-09-09T03:58:31;8.87;;;6.83;;
14139;SDS011;7150;53.514;9.988;2022-09-09T04:01:08;8.17;;;6.23;;
14139;SDS011;7150;53.514;9.988;2022-09-09T04:03:37;8.07;;;6.17;;
14139;SDS011;7150;53.514;9.988;2022-09-09T04:06:04;7.50;;;5.60;;
14139;SDS011;7150;53.514;9.988;2022-09-09T04:08:32;7.57;;;6.10;;
14139;SDS011;7150;53.514;9.988;2022-09-09T04:10:59;7.87;;;5.67;;
14139;SDS011;7150;53.514;9.988;2022-09-09T04:13:26;8.40;;;6.10;;
14139;SDS011;7150;53.514;9.988;2022-09-09T04:15:52;6.40;;;5.57;;
14139;SDS011;7150;53.514;9.988;2022-09-09T04:18:20;6.57;;;5.60;;
14139;SDS011;7150;53.514;9.988;2022-09-09T04:20:47;8.27;;;6.37;;
14139;SDS011;7150;53.514;9.988;2022-09-09T04:23:13;8.53;;;5.90;;
14139;SDS011;7150;53.514;9.988;2022-09-09T04:25:43;10.47;;;6.53;;
14139;SDS011;7150;53.514;9.988;2022-09-09T04:28:16;7.57;;;5.87;;
14139;SDS011;7150;53.514;9.988;2022-09-09T04:30:43;7.40;;;5.40;;
14139;SDS011;7150;53.514;9.988;2022-09-09T04:33:09;8.37;;;6.07;;
14139;SDS011;7150;53.514;9.988;2022-09-09T04:35:35;7.33;;;5.53;;
14139;SDS011;7150;53.514;9.988;2022-09-09T04:38:01;7.07;;;5.37;;
14139;SDS011;7150;53.514;9.988;2022-09-09T04:40:28;6.67;;;5.33;;
14139;SDS011;7150;53.514;9.988;2022-09-09T04:42:54;6.50;;;4.90;;
14139;SDS011;7150;53.514;9.988;2022-09-09T04:45:20;6.80;;;5.80;;
14139;SDS011;7150;53.514;9.988;2022-09-09T04:47:45;7.97;;;6.07;;
14139;SDS011;7150;53.514;9.988;2022-09-09T04:50:11;7.97;;;5.50;;
14139;SDS011;7150;53.514;9.988;2022-09-09T04:52:37;8.87;;;5.93;;
14139;SDS011;7150;53.514;9.988;2022-09-09T04:55:02;6.60;;;5.57;;
14139;SDS011;7150;53.514;9.988;2022-09-09T04:57:28;7.00;;;5.40;;
14139;SDS011;7150;53.514;9.988;2022-09-09T04:59:56;7.03;;;5.10;;
14139;SDS011;7150;53.514;9.988;2022-09-09T05:02:22;5.60;;;4.50;;
14139;SDS011;7150;53.514;9.988;2022-09-09T05:04:48;7.13;;;5.43;;
14139;SDS011;7150;53.514;9.988;2022-09-09T05:07:14;8.50;;;5.30;;
14139;SDS011;7150;53.514;9.988;2022-09-09T05:09:40;6.43;;;4.90;;
14139;SDS011;7150;53.514;9.988;2022-09-09T05:12:05;7.87;;;6.13;;
14139;SDS011;7150;53.514;9.988;2022-09-09T05:14:31;7.47;;;5.63;;
14139;SDS011;7150;53.514;9.988;2022-09-09T05:16:56;5.87;;;4.47;;
14139;SDS011;7150;53.514;9.988;2022-09-09T05:19:22;6.57;;;5.20;;
14139;SDS011;7150;53.514;9.988;2022-09-09T05:21:48;7.43;;;5.47;;
14139;SDS011;7150;53.514;9.988;2022-09-09T05:24:14;6.43;;;5.30;;
14139;SDS011;7150;53.514;9.988;2022-09-09T05:26:40;8.13;;;5.23;;
14139;SDS011;7150;53.514;9.988;2022-09-09T05:29:06;6.70;;;5.00;;
14139;SDS011;7150;53.514;9.988;2022-09-09T05:31:33;7.47;;;5.67;;
14139;SDS011;7150;53.514;9.988;2022-09-09T05:33:58;6.50;;;5.47;;
14139;SDS011;7150;53.514;9.988;2022-09-09T05:36:24;6.83;;;5.27;;
14139;SDS011;7150;53.514;9.988;2022-09-09T05:38:50;7.50;;;5.57;;
14139;SDS011;7150;53.514;9.988;2022-09-09T05:41:16;6.80;;;5.10;;
14139;SDS011;7150;53.514;9.988;2022-09-09T05:43:42;6.07;;;4.83;;
14139;SDS011;7150;53.514;9.988;2022-09-09T05:46:15;6.33;;;4.90;;
14139;SDS011;7150;53.514;9.988;2022-09-09T05:48:43;5.23;;;3.73;;
14139;SDS011;7150;53.514;9.988;2022-09-09T05:51:14;5.43;;;4.03;;
14139;SDS011;7150;53.514;9.988;2022-09-09T05:53:41;5.93;;;4.00;;
14139;SDS011;7150;53.514;9.988;2022-09-09T05:56:08;5.23;;;4.07;;
14139;SDS011;7150;53.514;9.988;2022-09-09T05:58:39;3.87;;;3.23;;
14139;SDS011;7150;53.514;9.988;2022-09-09T06:03:31;4.50;;;3.57;;
14139;SDS011;7150;53.514;9.988;2022-09-09T06:06:00;3.57;;;3.27;;
14139;SDS011;7150;53.514;9.988;2022-09-09T06:08:26;4.50;;;3.83;;
14139;SDS011;7150;53.514;9.988;2022-09-09T06:10:52;4.40;;;3.40;;
14139;SDS011;7150;53.514;9.988;2022-09-09T06:13:18;4.33;;;3.43;;
14139;SDS011;7150;53.514;9.988;2022-09-09T06:15:50;6.23;;;3.33;;
14139;SDS011;7150;53.514;9.988;2022-09-09T06:18:17;5.53;;;4.20;;
14139;SDS011;7150;53.514;9.988;2022-09-09T06:20:43;4.10;;;3.20;;
14139;SDS011;7150;53.514;9.988;2022-09-09T06:23:19;4.33;;;3.70;;
14139;SDS011;7150;53.514;9.988;2022-09-09T06:25:45;4.30;;;3.50;;
14139;SDS011;7150;53.514;9.988;2022-09-09T06:28:10;4.60;;;3.37;;
14139;SDS011;7150;53.514;9.988;2022-09-09T06:30:36;4.17;;;3.00;;
14139;SDS011;7150;53.514;9.988;2022-09-09T06:33:01;3.17;;;2.57;;
14139;SDS011;7150;53.514;9.988;2022-09-09T06:35:28;4.37;;;3.23;;
14139;SDS011;7150;53.514;9.988;2022-09-09T06:37:54;4.47;;;3.53;;
14139;SDS011;7150;53.514;9.988;2022-09-09T06:40:19;3.30;;;2.70;;
14139;SDS011;7150;53.514;9.988;2022-09-09T06:42:45;3.63;;;2.97;;
14139;SDS011;7150;53.514;9.988;2022-09-09T06:45:10;3.83;;;3.10;;
14139;SDS011;7150;53.514;9.988;2022-09-09T06:47:36;4.60;;;3.47;;
14139;SDS011;7150;53.514;9.988;2022-09-09T06:50:01;3.73;;;3.13;;
14139;SDS011;7150;53.514;9.988;2022-09-09T06:52:27;3.97;;;2.90;;
14139;SDS011;7150;53.514;9.988;2022-09-09T06:54:53;4.10;;;2.70;;
14139;SDS011;7150;53.514;9.988;2022-09-09T06:57:18;3.57;;;2.87;;
14139;SDS011;7150;53.514;9.988;2022-09-09T06:59:44;3.40;;;2.90;;
14139;SDS011;7150;53.514;9.988;2022-09-09T07:02:09;3.33;;;2.60;;
14139;SDS011;7150;53.514;9.988;2022-09-09T07:04:36;4.47;;;3.37;;
14139;SDS011;7150;53.514;9.988;2022-09-09T07:07:01;3.10;;;2.57;;
14139;SDS011;7150;53.514;9.988;2022-09-09T07:09:27;4.37;;;2.63;;
14139;SDS011;7150;53.514;9.988;2022-09-09T07:11:54;3.13;;;2.60;;
14139;SDS011;7150;53.514;9.988;2022-09-09T07:14:20;3.43;;;2.50;;
14139;SDS011;7150;53.514;9.988;2022-09-09T07:16:47;2.93;;;2.47;;
14139;SDS011;7150;53.514;9.988;2022-09-09T07:19:13;2.93;;;2.50;;
14139;SDS011;7150;53.514;9.988;2022-09-09T07:21:39;3.57;;;2.67;;
14139;SDS011;7150;53.514;9.988;2022-09-09T07:24:05;6.43;;;2.80;;
14139;SDS011;7150;53.514;9.988;2022-09-09T07:26:36;3.37;;;2.57;;
14139;SDS011;7150;53.514;9.988;2022-09-09T07:29:03;3.73;;;2.43;;
14139;SDS011;7150;53.514;9.988;2022-09-09T07:31:30;2.80;;;2.30;;
14139;SDS011;7150;53.514;9.988;2022-09-09T07:33:57;5.47;;;2.73;;
14139;SDS011;7150;53.514;9.988;2022-09-09T07:36:25;3.50;;;2.57;;
14139;SDS011;7150;53.514;9.988;2022-09-09T07:38:53;3.70;;;3.00;;
14139;SDS011;7150;53.514;9.988;2022-09-09T07:43:53;3.80;;;2.67;;
14139;SDS011;7150;53.514;9.988;2022-09-09T07:46:20;2.60;;;2.40;;
14139;SDS011;7150;53.514;9.988;2022-09-09T07:48:48;3.17;;;2.27;;
14139;SDS011;7150;53.514;9.988;2022-09-09T07:51:16;2.40;;;2.10;;
14139;SDS011;7150;53.514;9.988;2022-09-09T07:53:44;3.40;;;2.17;;
14139;SDS011;7150;53.514;9.988;2022-09-09T07:56:12;2.40;;;2.20;;
14139;SDS011;7150;53.514;9.988;2022-09-09T07:58:41;2.97;;;2.30;;
14139;SDS011;7150;53.514;9.988;2022-09-09T08:01:12;2.73;;;1.90;;
14139;SDS011;7150;53.514;9.988;2022-09-09T08:03:39;2.00;;;1.77;;
14139;SDS011;7150;53.514;9.988;2022-09-09T08:06:05;2.57;;;2.00;;
14139;SDS011;7150;53.514;9.988;2022-09-09T08:08:33;3.47;;;2.10;;
14139;SDS011;7150;53.514;9.988;2022-09-09T08:11:04;2.27;;;1.97;;
14139;SDS011;7150;53.514;9.988;2022-09-09T08:13:32;2.83;;;1.70;;
14139;SDS011;7150;53.514;9.988;2022-09-09T08:16:10;2.77;;;1.87;;
14139;SDS011;7150;53.514;9.988;2022-09-09T08:18:37;2.47;;;1.60;;
14139;SDS011;7150;53.514;9.988;2022-09-09T08:23:42;2.80;;;1.80;;
14139;SDS011;7150;53.514;9.988;2022-09-09T08:26:18;1.97;;;1.77;;
14139;SDS011;7150;53.514;9.988;2022-09-09T08:28:48;2.47;;;1.60;;
14139;SDS011;7150;53.514;9.988;2022-09-09T08:33:44;1.63;;;1.47;;
14139;SDS011;7150;53.514;9.988;2022-09-09T08:36:14;2.53;;;1.27;;
14139;SDS011;7150;53.514;9.988;2022-09-09T08:38:47;2.03;;;1.60;;
14139;SDS011;7150;53.514;9.988;2022-09-09T08:44:00;2.00;;;1.40;;
14139;SDS011;7150;53.514;9.988;2022-09-09T08:49:03;2.17;;;1.50;;
14139;SDS011;7150;53.514;9.988;2022-09-09T08:51:42;2.47;;;1.70;;
14139;SDS011;7150;53.514;9.988;2022-09-09T08:54:08;1.67;;;1.50;;
14139;SDS011;7150;53.514;9.988;2022-09-09T08:56:35;1.50;;;1.40;;
14139;SDS011;7150;53.514;9.988;2022-09-09T08:59:01;1.77;;;1.67;;
14139;SDS011;7150;53.514;9.988;2022-09-09T09:03:57;1.90;;;1.43;;
14139;SDS011;7150;53.514;9.988;2022-09-09T09:09:49;1.87;;;1.40;;
14139;SDS011;7150;53.514;9.988;2022-09-09T09:12:27;1.50;;;1.40;;
14139;SDS011;7150;53.514;9.988;2022-09-09T09:14:58;1.77;;;1.23;;
14139;SDS011;7150;53.514;9.988;2022-09-09T09:17:25;2.30;;;1.33;;
14139;SDS011;7150;53.514;9.988;2022-09-09T09:19:52;1.33;;;1.10;;
14139;SDS011;7150;53.514;9.988;2022-09-09T09:32:53;1.20;;;1.10;;
14139;SDS011;7150;53.514;9.988;2022-09-09T09:35:22;1.57;;;1.20;;
14139;SDS011;7150;53.514;9.988;2022-09-09T09:37:48;1.77;;;1.03;;
14139;SDS011;7150;53.514;9.988;2022-09-09T09:40:15;1.20;;;1.10;;
14139;SDS011;7150;53.514;9.988;2022-09-09T09:42:52;1.40;;;1.10;;
14139;SDS011;7150;53.514;9.988;2022-09-09T09:48:04;1.00;;;0.90;;
14139;SDS011;7150;53.514;9.988;2022-09-09T09:50:31;1.27;;;1.10;;
14139;SDS011;7150;53.514;9.988;2022-09-09T09:52:59;1.00;;;0.90;;
14139;SDS011;7150;53.514;9.988;2022-09-09T09:55:29;0.97;;;0.87;;
14139;SDS011;7150;53.514;9.988;2022-09-09T09:58:06;1.13;;;0.80;;
14139;SDS011;7150;53.514;9.988;2022-09-09T10:00:46;0.70;;;0.67;;
14139;SDS011;7150;53.514;9.988;2022-09-09T10:06:15;0.80;;;0.77;;
14139;SDS011;7150;53.514;9.988;2022-09-09T10:08:44;0.80;;;0.80;;
14139;SDS011;7150;53.514;9.988;2022-09-09T10:12:00;1.00;;;0.90;;
14139;SDS011;7150;53.514;9.988;2022-09-09T10:14:36;0.63;;;0.63;;
14139;SDS011;7150;53.514;9.988;2022-09-09T10:17:14;0.63;;;0.63;;
14139;SDS011;7150;53.514;9.988;2022-09-09T10:22:35;1.13;;;0.60;;
14139;SDS011;7150;53.514;9.988;2022-09-09T10:25:03;0.77;;;0.77;;
14139;SDS011;7150;53.514;9.988;2022-09-09T10:33:33;0.63;;;0.63;;
14139;SDS011;7150;53.514;9.988;2022-09-09T10:36:13;1.17;;;0.90;;
14139;SDS011;7150;53.514;9.988;2022-09-09T10:44:30;1.70;;;0.60;;
14139;SDS011;7150;53.514;9.988;2022-09-09T10:52:37;1.63;;;0.60;;
14139;SDS011;7150;53.514;9.988;2022-09-09T10:55:35;1.27;;;0.60;;
14139;SDS011;7150;53.514;9.988;2022-09-09T11:01:00;0.73;;;0.60;;
14139;SDS011;7150;53.514;9.988;2022-09-09T11:03:32;0.77;;;0.77;;
14139;SDS011;7150;53.514;9.988;2022-09-09T11:06:04;0.43;;;0.40;;
14139;SDS011;7150;53.514;9.988;2022-09-09T11:08:31;0.47;;;0.47;;
14139;SDS011;7150;53.514;9.988;2022-09-09T11:16:40;0.57;;;0.50;;
14139;SDS011;7150;53.514;9.988;2022-09-09T11:22:26;0.60;;;0.60;;
14139;SDS011;7150;53.514;9.988;2022-09-09T11:27:59;0.83;;;0.63;;
14139;SDS011;7150;53.514;9.988;2022-09-09T11:41:42;0.50;;;0.50;;
14139;SDS011;7150;53.514;9.988;2022-09-09T11:44:17;1.10;;;0.70;;
14139;SDS011;7150;53.514;9.988;2022-09-09T11:46:49;0.60;;;0.50;;
14139;SDS011;7150;53.514;9.988;2022-09-09T11:49:30;0.97;;;0.53;;
14139;SDS011;7150;53.514;9.988;2022-09-09T11:52:10;1.13;;;0.50;;
14139;SDS011;7150;53.514;9.988;2022-09-09T11:54:52;0.50;;;0.50;;
14139;SDS011;7150;53.514;9.988;2022-09-09T11:57:24;0.50;;;0.50;;
14139;SDS011;7150;53.514;9.988;2022-09-09T11:59:55;0.60;;;0.60;;
14139;SDS011;7150;53.514;9.988;2022-09-09T12:02:25;0.67;;;0.60;;
14139;SDS011;7150;53.514;9.988;2022-09-09T12:05:10;0.40;;;0.30;;
14139;SDS011;7150;53.514;9.988;2022-09-09T12:07:40;1.23;;;0.80;;
14139;SDS011;7150;53.514;9.988;2022-09-09T12:10:31;0.80;;;0.67;;
14139;SDS011;7150;53.514;9.988;2022-09-09T12:13:16;0.60;;;0.60;;
14139;SDS011;7150;53.514;9.988;2022-09-09T12:15:48;1.53;;;0.70;;
14139;SDS011;7150;53.514;9.988;2022-09-09T12:18:22;1.17;;;0.90;;
14139;SDS011;7150;53.514;9.988;2022-09-09T12:31:31;0.53;;;0.53;;
14139;SDS011;7150;53.514;9.988;2022-09-09T12:34:17;0.93;;;0.60;;
14139;SDS011;7150;53.514;9.988;2022-09-09T12:37:30;1.00;;;0.80;;
14139;SDS011;7150;53.514;9.988;2022-09-09T12:40:01;1.67;;;0.80;;
14139;SDS011;7150;53.514;9.988;2022-09-09T12:42:31;0.70;;;0.70;;
14139;SDS011;7150;53.514;9.988;2022-09-09T12:45:01;0.60;;;0.60;;
14139;SDS011;7150;53.514;9.988;2022-09-09T12:47:41;1.23;;;0.60;;
14139;SDS011;7150;53.514;9.988;2022-09-09T12:50:25;0.83;;;0.67;;
14139;SDS011;7150;53.514;9.988;2022-09-09T12:52:54;1.30;;;0.73;;
14139;SDS011;7150;53.514;9.988;2022-09-09T12:55:30;1.00;;;0.60;;
14139;SDS011;7150;53.514;9.988;2022-09-09T12:57:58;1.07;;;0.67;;
14139;SDS011;7150;53.514;9.988;2022-09-09T13:00:25;1.10;;;0.83;;
14139;SDS011;7150;53.514;9.988;2022-09-09T13:02:55;0.90;;;0.70;;
14139;SDS011;7150;53.514;9.988;2022-09-09T13:05:23;1.00;;;1.00;;
14139;SDS011;7150;53.514;9.988;2022-09-09T13:07:51;1.23;;;1.10;;
14139;SDS011;7150;53.514;9.988;2022-09-09T13:10:26;1.13;;;1.03;;
14139;SDS011;7150;53.514;9.988;2022-09-09T13:12:54;1.00;;;0.90;;
14139;SDS011;7150;53.514;9.988;2022-09-09T13:15:21;1.73;;;1.30;;
14139;SDS011;7150;53.514;9.988;2022-09-09T13:17:49;1.17;;;1.07;;
14139;SDS011;7150;53.514;9.988;2022-09-09T13:20:27;1.70;;;1.20;;
14139;SDS011;7150;53.514;9.988;2022-09-09T13:22:53;2.40;;;1.20;;
14139;SDS011;7150;53.514;9.988;2022-09-09T13:25:23;2.33;;;1.67;;
14139;SDS011;7150;53.514;9.988;2022-09-09T13:27:55;2.50;;;1.53;;
14139;SDS011;7150;53.514;9.988;2022-09-09T13:33:05;2.17;;;1.40;;
14139;SDS011;7150;53.514;9.988;2022-09-09T13:35:50;2.47;;;1.37;;
14139;SDS011;7150;53.514;9.988;2022-09-09T13:38:16;2.57;;;1.40;;
14139;SDS011;7150;53.514;9.988;2022-09-09T13:40:55;2.37;;;1.40;;
14139;SDS011;7150;53.514;9.988;2022-09-09T13:43:24;3.00;;;1.17;;
14139;SDS011;7150;53.514;9.988;2022-09-09T13:45:58;3.10;;;1.23;;
14139;SDS011;7150;53.514;9.988;2022-09-09T13:48:26;2.43;;;1.43;;
14139;SDS011;7150;53.514;9.988;2022-09-09T13:50:59;3.20;;;1.70;;
14139;SDS011;7150;53.514;9.988;2022-09-09T13:53:28;2.07;;;1.33;;
14139;SDS011;7150;53.514;9.988;2022-09-09T13:55:53;1.50;;;1.40;;
14139;SDS011;7150;53.514;9.988;2022-09-09T13:58:19;1.63;;;1.40;;
14139;SDS011;7150;53.514;9.988;2022-09-09T14:00:46;2.03;;;1.60;;
14139;SDS011;7150;53.514;9.988;2022-09-09T14:03:12;1.90;;;1.40;;
14139;SDS011;7150;53.514;9.988;2022-09-09T14:05:38;1.70;;;1.40;;
14139;SDS011;7150;53.514;9.988;2022-09-09T14:08:04;3.47;;;1.40;;
14139;SDS011;7150;53.514;9.988;2022-09-09T14:10:31;2.60;;;1.50;;
14139;SDS011;7150;53.514;9.988;2022-09-09T14:12:56;1.50;;;1.23;;
14139;SDS011;7150;53.514;9.988;2022-09-09T14:15:22;2.27;;;1.40;;
14139;SDS011;7150;53.514;9.988;2022-09-09T14:17:47;2.97;;;1.60;;
14139;SDS011;7150;53.514;9.988;2022-09-09T14:20:13;1.30;;;1.20;;
14139;SDS011;7150;53.514;9.988;2022-09-09T14:22:40;2.77;;;1.40;;
14139;SDS011;7150;53.514;9.988;2022-09-09T14:25:06;1.60;;;1.50;;
14139;SDS011;7150;53.514;9.988;2022-09-09T14:27:33;2.13;;;1.43;;
14139;SDS011;7150;53.514;9.988;2022-09-09T14:29:58;2.50;;;1.30;;
14139;SDS011;7150;53.514;9.988;2022-09-09T14:32:25;1.77;;;1.30;;
14139;SDS011;7150;53.514;9.988;2022-09-09T14:34:51;2.30;;;1.40;;
14139;SDS011;7150;53.514;9.988;2022-09-09T14:37:17;2.13;;;1.60;;
14139;SDS011;7150;53.514;9.988;2022-09-09T14:39:43;1.90;;;1.27;;
14139;SDS011;7150;53.514;9.988;2022-09-09T14:42:12;1.50;;;1.20;;
14139;SDS011;7150;53.514;9.988;2022-09-09T14:44:38;1.80;;;1.47;;
14139;SDS011;7150;53.514;9.988;2022-09-09T14:47:04;1.50;;;1.40;;
14139;SDS011;7150;53.514;9.988;2022-09-09T14:49:30;2.03;;;1.40;;
14139;SDS011;7150;53.514;9.988;2022-09-09T14:51:56;1.50;;;1.17;;
14139;SDS011;7150;53.514;9.988;2022-09-09T14:54:22;2.60;;;1.30;;
14139;SDS011;7150;53.514;9.988;2022-09-09T14:56:48;1.13;;;1.00;;
14139;SDS011;7150;53.514;9.988;2022-09-09T14:59:13;1.57;;;1.30;;
14139;SDS011;7150;53.514;9.988;2022-09-09T15:01:39;1.20;;;1.10;;
14139;SDS011;7150;53.514;9.988;2022-09-09T15:04:05;1.20;;;1.10;;
14139;SDS011;7150;53.514;9.988;2022-09-09T15:06:32;1.53;;;1.40;;
14139;SDS011;7150;53.514;9.988;2022-09-09T15:08:59;1.83;;;1.33;;
14139;SDS011;7150;53.514;9.988;2022-09-09T15:11:28;1.40;;;1.30;;
14139;SDS011;7150;53.514;9.988;2022-09-09T15:13:55;2.20;;;1.40;;
14139;SDS011;7150;53.514;9.988;2022-09-09T15:16:23;3.13;;;1.57;;
14139;SDS011;7150;53.514;9.988;2022-09-09T15:18:51;2.67;;;1.60;;
14139;SDS011;7150;53.514;9.988;2022-09-09T15:21:19;1.53;;;1.40;;
14139;SDS011;7150;53.514;9.988;2022-09-09T15:23:46;2.57;;;1.37;;
14139;SDS011;7150;53.514;9.988;2022-09-09T15:26:12;1.57;;;1.20;;
14139;SDS011;7150;53.514;9.988;2022-09-09T15:28:42;1.93;;;1.30;;
14139;SDS011;7150;53.514;9.988;2022-09-09T15:31:11;1.90;;;1.30;;
14139;SDS011;7150;53.514;9.988;2022-09-09T15:33:47;1.47;;;1.37;;
14139;SDS011;7150;53.514;9.988;2022-09-09T15:36:20;1.97;;;1.40;;
14139;SDS011;7150;53.514;9.988;2022-09-09T15:38:51;2.40;;;1.30;;
14139;SDS011;7150;53.514;9.988;2022-09-09T15:41:18;1.40;;;1.27;;
14139;SDS011;7150;53.514;9.988;2022-09-09T15:43:45;1.40;;;1.20;;
14139;SDS011;7150;53.514;9.988;2022-09-09T15:48:42;1.20;;;1.10;;
14139;SDS011;7150;53.514;9.988;2022-09-09T15:51:09;0.83;;;0.83;;
14139;SDS011;7150;53.514;9.988;2022-09-09T15:53:36;2.50;;;0.90;;
14139;SDS011;7150;53.514;9.988;2022-09-09T15:56:03;1.57;;;0.77;;
14139;SDS011;7150;53.514;9.988;2022-09-09T15:58:31;2.33;;;1.20;;
14139;SDS011;7150;53.514;9.988;2022-09-09T16:01:07;1.80;;;1.27;;
14139;SDS011;7150;53.514;9.988;2022-09-09T16:03:34;0.80;;;0.80;;
14139;SDS011;7150;53.514;9.988;2022-09-09T16:06:00;1.07;;;0.97;;
14139;SDS011;7150;53.514;9.988;2022-09-09T16:08:32;0.80;;;0.80;;
14139;SDS011;7150;53.514;9.988;2022-09-09T16:11:08;1.10;;;1.00;;
14139;SDS011;7150;53.514;9.988;2022-09-09T16:13:42;1.07;;;0.97;;
14139;SDS011;7150;53.514;9.988;2022-09-09T16:16:09;2.17;;;1.10;;
14139;SDS011;7150;53.514;9.988;2022-09-09T16:18:38;0.83;;;0.83;;
14139;SDS011;7150;53.514;9.988;2022-09-09T16:21:05;0.90;;;0.80;;
14139;SDS011;7150;53.514;9.988;2022-09-09T16:23:33;0.80;;;0.80;;
14139;SDS011;7150;53.514;9.988;2022-09-09T16:26:01;0.80;;;0.73;;
14139;SDS011;7150;53.514;9.988;2022-09-09T16:28:27;0.80;;;0.57;;
14139;SDS011;7150;53.514;9.988;2022-09-09T16:30:53;0.87;;;0.73;;
14139;SDS011;7150;53.514;9.988;2022-09-09T16:33:19;0.73;;;0.70;;
14139;SDS011;7150;53.514;9.988;2022-09-09T16:35:45;1.70;;;0.83;;
14139;SDS011;7150;53.514;9.988;2022-09-09T16:38:10;1.20;;;0.90;;
14139;SDS011;7150;53.514;9.988;2022-09-09T16:40:37;0.70;;;0.70;;
14139;SDS011;7150;53.514;9.988;2022-09-09T16:43:05;1.07;;;0.90;;
14139;SDS011;7150;53.514;9.988;2022-09-09T16:45:31;0.87;;;0.70;;
14139;SDS011;7150;53.514;9.988;2022-09-09T16:47:57;1.20;;;0.73;;
14139;SDS011;7150;53.514;9.988;2022-09-09T16:50:23;1.30;;;1.00;;
14139;SDS011;7150;53.514;9.988;2022-09-09T16:52:48;1.37;;;1.00;;
14139;SDS011;7150;53.514;9.988;2022-09-09T16:55:15;1.27;;;0.80;;
14139;SDS011;7150;53.514;9.988;2022-09-09T16:57:41;1.30;;;0.83;;
14139;SDS011;7150;53.514;9.988;2022-09-09T17:00:07;1.47;;;0.90;;
14139;SDS011;7150;53.514;9.988;2022-09-09T17:02:33;1.03;;;0.93;;
14139;SDS011;7150;53.514;9.988;2022-09-09T17:04:58;1.73;;;1.40;;
14139;SDS011;7150;53.514;9.988;2022-09-09T17:07:24;1.47;;;1.30;;
14139;SDS011;7150;53.514;9.988;2022-09-09T17:09:50;2.17;;;1.07;;
14139;SDS011;7150;53.514;9.988;2022-09-09T17:12:15;2.43;;;1.30;;
14139;SDS011;7150;53.514;9.988;2022-09-09T17:14:42;0.80;;;0.80;;
14139;SDS011;7150;53.514;9.988;2022-09-09T17:17:08;2.17;;;1.10;;
14139;SDS011;7150;53.514;9.988;2022-09-09T17:19:33;2.50;;;1.20;;
14139;SDS011;7150;53.514;9.988;2022-09-09T17:21:59;1.13;;;1.03;;
14139;SDS011;7150;53.514;9.988;2022-09-09T17:24:25;1.23;;;1.10;;
14139;SDS011;7150;53.514;9.988;2022-09-09T17:26:52;1.70;;;1.30;;
14139;SDS011;7150;53.514;9.988;2022-09-09T17:29:18;1.30;;;1.20;;
14139;SDS011;7150;53.514;9.988;2022-09-09T17:31:43;1.97;;;1.40;;